| Date | Time | Temp. (oF) | Dew Point (oF) | Rel. Hum. (%) | Press. (in.) | Wind Dir. (deg.) | Wind Speed (mph) | Hourly Rainfall (i n.) |
|
|---|---|---|---|---|---|---|---|---|---|
| 1 | 10/25 | 24:00 | 47 | 34 | 62 | 30.26 | 270 | 7 | 0.00 |
| 2 | 10/24 | 23:00 | 48 | 36 | 64 | 30.25 | 340 | 9 | 0.00 |
| 3 | 10/24 | 22:00 | 49 | 36 | 63 | 30.24 | 290 | 6 | 0.00 |
| 4 | 10/24 | 21:00 | 49 | 34 | 58 | 30.21 | 360 | 1 | 0.00 |
| 5 | 10/24 | 20:00 | 51 | 34 | 53 | 30.20 | 340 | 6 | 0.00 |
| 6 | 10/24 | 19:00 | 53 | 36 | 54 | 30.19 | 310 | 10 | 0.00 |
| 7 | 10/24 | 18:00 | 54 | 37 | 53 | 30.18 | 330 | 6 | 0.00 |
| 8 | 10/24 | 17:00 | 56 | 35 | 47 | 30.17 | 10 | 6 | 0.00 |
| 9 | 10/24 | 16:00 | 56 | 38 | 52 | 30.15 | 310 | 6 | 0.00 |
| 10 | 10/24 | 15:00 | 57 | 38 | 51 | 30.15 | 290 | 10 | 0.00 |
| 11 | 10/24 | 14:00 | 56 | 39 | 53 | 30.15 | 270 | 6 | 0.00 |
| 12 | 10/24 | 13:00 | 55 | 39 | 55 | 30.15 | 300 | 10 | 0.00 |
| 13 | 10/24 | 12:00 | 55 | 39 | 55 | 30.15 | 270 | 10 | 0.00 |
| 14 | 10/24 | 11:00 | 52 | 39 | 62 | 30.13 | 330 | 7 | 0.00 |
| 15 | 10/24 | 10:00 | 49 | 38 | 66 | 30.12 | 270 | 7 | 0.00 |
| 16 | 10/24 | 09:00 | 46 | 37 | 73 | 30.09 | 300 | 6 | 0.00 |
| 17 | 10/24 | 08:00 | 44 | 36 | 76 | 30.05 | 300 | 1 | 0.00 |
| 18 | 10/24 | 07:00 | 44 | 36 | 76 | 30.03 | 290 | 1 | 0.00 |
| 19 | 10/24 | 06:00 | 46 | 37 | 72 | 30.01 | 290 | 4 | 0.00 |
| 20 | 10/24 | 05:00 | 47 | 37 | 70 | 29.98 | 290 | 4 | 0.00 |
| 21 | 10/24 | 04:00 | 47 | 36 | 67 | 29.97 | 290 | 1 | 0.00 |
| 22 | 10/24 | 03:00 | 47 | 36 | 67 | 29.96 | 310 | 2 | 0.00 |
| 23 | 10/24 | 02:00 | 47 | 36 | 67 | 29.96 | 310 | 0 | 0.00 |
| 24 | 10/24 | 01:00 | 47 | 35 | 65 | 29.94 | 300 | 2 | 0.00 |